Time;durP1;ratioP1;P1;durP2;ratioP2;P2;SDS_P1;SDS_P2;PMS_P1;PMS_P2;Temp;Humidity;BMP_temperature;BMP_pressure;BME280_temperature;BME280_humidity;BME280_pressure;Samples;Min_cycle;Max_cycle;Signal;HPM_P1;HPM_P2
2023/01/11 00:01:12;;;;;;;4.43;2.43;;;;;;;;;;5030202;28;20208;-58
2023/01/11 00:03:39;;;;;;;5.73;2.50;;;;;;;;;;5026426;28;20197;-57
2023/01/11 00:06:07;;;;;;;3.43;2.70;;;;;;;;;;5028562;28;20200;-57
2023/01/11 00:08:34;;;;;;;3.80;2.37;;;;;;;;;;5029176;28;20207;-58
2023/01/11 00:11:01;;;;;;;2.63;2.07;;;;;;;;;;5023584;28;20211;-57
2023/01/11 00:13:28;;;;;;;3.77;1.90;;;;;;;;;;5028475;28;20232;-59
2023/01/11 00:15:57;;;;;;;3.33;2.10;;;;;;;;;;5026952;28;20380;-59
2023/01/11 00:18:24;;;;;;;5.20;2.30;;;;;;;;;;5027747;28;20200;-58
2023/01/11 00:20:51;;;;;;;5.53;2.40;;;;;;;;;;5029483;28;20283;-57
2023/01/11 00:23:18;;;;;;;3.67;2.30;;;;;;;;;;5025437;28;20196;-57
2023/01/11 00:25:45;;;;;;;2.60;2.40;;;;;;;;;;5024858;28;20219;-57
2023/01/11 00:28:12;;;;;;;4.37;2.20;;;;;;;;;;5024289;28;20204;-57
2023/01/11 00:30:40;;;;;;;4.30;2.20;;;;;;;;;;5025937;28;20192;-57
2023/01/11 00:33:11;;;;;;;3.70;2.47;;;;;;;;;;5025839;28;20231;-59
2023/01/11 00:35:38;;;;;;;3.33;2.60;;;;;;;;;;5025179;28;20208;-58
2023/01/11 00:38:05;;;;;;;3.40;2.90;;;;;;;;;;5025530;28;20212;-58
2023/01/11 00:40:33;;;;;;;2.57;2.37;;;;;;;;;;5031854;28;20231;-57
2023/01/11 00:48:42;;;;;;;3.70;2.20;;;;;;;;;;5028160;28;20226;-58
2023/01/11 00:51:09;;;;;;;3.10;2.37;;;;;;;;;;5023611;28;20200;-58
2023/01/11 00:53:36;;;;;;;3.90;2.17;;;;;;;;;;5023981;28;20247;-59
2023/01/11 00:56:03;;;;;;;3.33;2.37;;;;;;;;;;5027356;28;20200;-58
2023/01/11 00:58:30;;;;;;;2.30;2.10;;;;;;;;;;5025672;28;20204;-58
2023/01/11 01:00:57;;;;;;;2.80;2.10;;;;;;;;;;5027098;28;20196;-59
2023/01/11 01:03:25;;;;;;;4.17;2.30;;;;;;;;;;5030079;28;20212;-58
2023/01/11 01:05:56;;;;;;;2.30;1.90;;;;;;;;;;5026923;28;20204;-58
2023/01/11 01:08:23;;;;;;;3.40;2.20;;;;;;;;;;5023700;28;20218;-58
2023/01/11 01:10:52;;;;;;;3.03;2.13;;;;;;;;;;5023852;28;20211;-59
2023/01/11 01:16:03;;;;;;;2.03;1.83;;;;;;;;;;5026641;28;20199;-57
2023/01/11 01:18:30;;;;;;;3.83;2.07;;;;;;;;;;5026028;28;20268;-57
2023/01/11 01:20:59;;;;;;;2.03;1.83;;;;;;;;;;5026976;28;20211;-58
2023/01/11 01:23:26;;;;;;;2.57;1.80;;;;;;;;;;5023994;28;20203;-57
2023/01/11 01:25:53;;;;;;;1.90;1.47;;;;;;;;;;5022715;28;20199;-58
2023/01/11 01:28:20;;;;;;;3.37;1.57;;;;;;;;;;5024112;28;20377;-58
2023/01/11 01:30:50;;;;;;;2.87;1.50;;;;;;;;;;5022335;28;20204;-59
2023/01/11 01:33:17;;;;;;;2.37;1.47;;;;;;;;;;5023997;28;20313;-58
2023/01/11 01:35:44;;;;;;;1.60;1.30;;;;;;;;;;5024072;28;20204;-58
2023/01/11 01:38:13;;;;;;;1.60;1.50;;;;;;;;;;5028576;28;20200;-59
2023/01/11 01:40:41;;;;;;;2.67;1.50;;;;;;;;;;5021741;28;20204;-58
2023/01/11 01:43:09;;;;;;;2.57;1.40;;;;;;;;;;5025501;28;20200;-58
2023/01/11 01:45:37;;;;;;;2.03;1.47;;;;;;;;;;5024201;28;20212;-58
2023/01/11 01:48:04;;;;;;;1.67;1.30;;;;;;;;;;5024255;28;20295;-58
2023/01/11 01:50:33;;;;;;;1.30;1.20;;;;;;;;;;5023385;28;20262;-58
2023/01/11 01:53:02;;;;;;;1.90;1.50;;;;;;;;;;5026414;28;20220;-58
2023/01/11 01:55:33;;;;;;;2.30;1.50;;;;;;;;;;5029630;28;20200;-58
2023/01/11 01:58:01;;;;;;;2.30;1.40;;;;;;;;;;5027099;28;20211;-58
2023/01/11 02:00:29;;;;;;;2.50;1.30;;;;;;;;;;5027166;28;20208;-59
2023/01/11 02:02:56;;;;;;;1.30;1.20;;;;;;;;;;5027447;28;20207;-58
2023/01/11 02:05:23;;;;;;;1.80;1.10;;;;;;;;;;5026448;28;20204;-59
2023/01/11 02:07:53;;;;;;;1.53;1.27;;;;;;;;;;5020394;28;20287;-58
2023/01/11 02:10:21;;;;;;;2.63;1.30;;;;;;;;;;5025909;28;20205;-57
2023/01/11 02:12:51;;;;;;;1.30;1.20;;;;;;;;;;5024403;28;20227;-59
2023/01/11 02:15:19;;;;;;;1.47;1.20;;;;;;;;;;5026664;28;20207;-58
2023/01/11 02:17:46;;;;;;;2.97;1.20;;;;;;;;;;5024331;28;20215;-58
2023/01/11 02:20:28;;;;;;;0.93;0.93;;;;;;;;;;5029551;28;20232;-59
2023/01/11 02:23:08;;;;;;;0.90;0.90;;;;;;;;;;5021849;28;20211;-56
2023/01/11 02:25:48;;;;;;;0.80;0.80;;;;;;;;;;5023286;28;20200;-57
2023/01/11 02:28:18;;;;;;;0.80;0.80;;;;;;;;;;5024809;28;20200;-58
2023/01/11 02:30:49;;;;;;;1.00;1.00;;;;;;;;;;5022454;28;20204;-58
2023/01/11 02:33:19;;;;;;;0.80;0.80;;;;;;;;;;5023470;28;20230;-57
2023/01/11 02:35:50;;;;;;;1.10;0.80;;;;;;;;;;5027706;28;20208;-55
2023/01/11 02:38:23;;;;;;;1.20;1.07;;;;;;;;;;5022068;28;20212;-58
2023/01/11 02:40:53;;;;;;;0.80;0.80;;;;;;;;;;5025856;28;20210;-58
2023/01/11 02:46:11;;;;;;;1.00;1.00;;;;;;;;;;4993870;28;20212;-58
2023/01/11 02:48:42;;;;;;;1.23;1.00;;;;;;;;;;5027889;28;20232;-58
2023/01/11 02:51:13;;;;;;;1.20;1.10;;;;;;;;;;5027477;28;20207;-58
2023/01/11 02:53:42;;;;;;;0.97;0.97;;;;;;;;;;5026507;28;20216;-58
2023/01/11 02:56:11;;;;;;;1.10;1.10;;;;;;;;;;5026732;28;20206;-57
2023/01/11 02:58:41;;;;;;;1.30;1.20;;;;;;;;;;5022771;28;20205;-59
2023/01/11 03:01:08;;;;;;;1.00;0.93;;;;;;;;;;5028100;28;20215;-58
2023/01/11 03:03:35;;;;;;;1.63;1.30;;;;;;;;;;5024796;28;20204;-58
2023/01/11 03:06:03;;;;;;;1.33;1.30;;;;;;;;;;5023266;28;20210;-59
2023/01/11 03:08:46;;;;;;;1.43;1.13;;;;;;;;;;5028108;28;20208;-57
2023/01/11 03:12:50;;;;;;;1.10;1.10;;;;;;;;;;5025128;28;20200;-58
2023/01/11 03:14:04;;;;;;;1.93;1.30;;;;;;;;;;5024054;28;20228;-58
2023/01/11 03:16:33;;;;;;;1.67;1.20;;;;;;;;;;5024281;28;20231;-58
2023/01/11 03:19:07;;;;;;;5.83;4.60;;;;;;;;;;5029031;28;20200;-57
2023/01/11 03:21:48;;;;;;;1.07;1.07;;;;;;;;;;5028698;28;20238;-58
2023/01/11 03:24:20;;;;;;;2.63;1.00;;;;;;;;;;5027848;28;20211;-58
2023/01/11 03:26:55;;;;;;;1.00;1.00;;;;;;;;;;5027749;28;20298;-58
2023/01/11 03:29:28;;;;;;;2.43;1.03;;;;;;;;;;5024450;28;20209;-58
2023/01/11 03:32:02;;;;;;;1.17;1.10;;;;;;;;;;5024828;28;20208;-58
2023/01/11 03:34:32;;;;;;;0.90;0.90;;;;;;;;;;5024550;28;20219;-59
2023/01/11 03:37:02;;;;;;;0.90;0.90;;;;;;;;;;5023065;28;20192;-58
2023/01/11 03:39:31;;;;;;;1.00;0.93;;;;;;;;;;5026754;28;20200;-57
2023/01/11 03:42:00;;;;;;;1.37;1.10;;;;;;;;;;5023891;28;20204;-59
2023/01/11 03:44:32;;;;;;;0.80;0.80;;;;;;;;;;5026779;28;20215;-60
2023/01/11 03:47:01;;;;;;;1.13;0.90;;;;;;;;;;5026065;28;20287;-58
2023/01/11 03:49:29;;;;;;;0.90;0.90;;;;;;;;;;5028844;28;20211;-58
2023/01/11 03:51:57;;;;;;;1.07;0.90;;;;;;;;;;5024458;28;20220;-57
2023/01/11 03:54:25;;;;;;;1.00;1.00;;;;;;;;;;5025502;28;20224;-60
2023/01/11 03:56:54;;;;;;;0.90;0.90;;;;;;;;;;5026025;28;20208;-58
2023/01/11 03:59:22;;;;;;;1.00;1.00;;;;;;;;;;5027011;28;20196;-59
2023/01/11 04:01:52;;;;;;;1.23;1.00;;;;;;;;;;5024639;28;20200;-60
2023/01/11 04:04:20;;;;;;;1.07;1.00;;;;;;;;;;5024833;28;20196;-58
2023/01/11 04:06:47;;;;;;;2.57;1.00;;;;;;;;;;5027756;28;20212;-58
2023/01/11 04:09:14;;;;;;;1.73;1.00;;;;;;;;;;5029438;28;20215;-59
2023/01/11 04:11:41;;;;;;;1.13;1.07;;;;;;;;;;5024777;28;20201;-59
2023/01/11 04:14:08;;;;;;;1.00;1.00;;;;;;;;;;5030324;28;20216;-59
2023/01/11 04:16:35;;;;;;;0.90;0.90;;;;;;;;;;5031638;28;20215;-57
2023/01/11 04:19:04;;;;;;;0.93;0.93;;;;;;;;;;5023821;28;20200;-58
2023/01/11 04:21:31;;;;;;;1.13;1.00;;;;;;;;;;5031917;28;20214;-57
2023/01/11 04:23:58;;;;;;;1.53;1.00;;;;;;;;;;5030176;28;20263;-58
2023/01/11 04:26:25;;;;;;;1.20;1.10;;;;;;;;;;5029761;28;20240;-58
2023/01/11 04:28:52;;;;;;;0.90;0.90;;;;;;;;;;5031161;28;20536;-58
2023/01/11 04:31:19;;;;;;;1.10;1.10;;;;;;;;;;5032375;28;20208;-58
2023/01/11 04:33:47;;;;;;;1.10;1.10;;;;;;;;;;5031996;28;20518;-57
2023/01/11 04:36:15;;;;;;;1.00;1.00;;;;;;;;;;5028991;28;20283;-56
2023/01/11 04:38:42;;;;;;;1.20;1.10;;;;;;;;;;5031231;28;20200;-58
2023/01/11 04:43:55;;;;;;;1.37;1.00;;;;;;;;;;5031471;28;20211;-58
2023/01/11 04:46:22;;;;;;;0.90;0.90;;;;;;;;;;5031027;28;20254;-58
2023/01/11 04:48:50;;;;;;;0.90;0.90;;;;;;;;;;5027617;28;20204;-58
2023/01/11 04:51:18;;;;;;;1.00;1.00;;;;;;;;;;5025582;28;20234;-56
2023/01/11 04:53:47;;;;;;;1.17;0.93;;;;;;;;;;5032021;28;20482;-58
2023/01/11 04:56:15;;;;;;;0.90;0.90;;;;;;;;;;5028311;28;20215;-58
2023/01/11 04:58:42;;;;;;;0.87;0.87;;;;;;;;;;5030755;28;20204;-57
2023/01/11 05:01:10;;;;;;;0.80;0.80;;;;;;;;;;5029023;28;20196;-58
2023/01/11 05:03:37;;;;;;;0.77;0.77;;;;;;;;;;5032019;28;20201;-59
2023/01/11 05:06:05;;;;;;;0.97;0.80;;;;;;;;;;5027009;28;20201;-58
2023/01/11 05:08:34;;;;;;;1.10;1.00;;;;;;;;;;5028657;28;20250;-58
2023/01/11 05:11:02;;;;;;;1.10;0.90;;;;;;;;;;5028651;28;20201;-56
2023/01/11 05:13:41;;;;;;;1.33;0.90;;;;;;;;;;5028640;28;20208;-58
2023/01/11 05:16:08;;;;;;;0.90;0.90;;;;;;;;;;5023501;28;20207;-59
2023/01/11 05:18:35;;;;;;;0.90;0.90;;;;;;;;;;5029774;28;20219;-58
2023/01/11 05:21:03;;;;;;;1.00;1.00;;;;;;;;;;5028100;28;20205;-58
2023/01/11 05:23:30;;;;;;;1.00;1.00;;;;;;;;;;5028378;28;20295;-57
2023/01/11 05:25:58;;;;;;;0.97;0.97;;;;;;;;;;5027792;28;20211;-58
2023/01/11 05:28:26;;;;;;;1.10;1.00;;;;;;;;;;5024531;28;20209;-58
2023/01/11 05:30:53;;;;;;;0.87;0.87;;;;;;;;;;5020274;28;20204;-59
2023/01/11 05:33:20;;;;;;;0.93;0.93;;;;;;;;;;5026752;28;20283;-59
2023/01/11 05:35:49;;;;;;;1.20;1.20;;;;;;;;;;5026794;28;20220;-57
2023/01/11 05:38:16;;;;;;;1.17;1.07;;;;;;;;;;5024213;28;20233;-57
2023/01/11 05:40:43;;;;;;;1.00;1.00;;;;;;;;;;5028959;28;20211;-57
2023/01/11 05:43:12;;;;;;;1.70;1.60;;;;;;;;;;5032877;28;20283;-57
2023/01/11 05:45:38;;;;;;;3.60;1.00;;;;;;;;;;5024163;28;20212;-57
2023/01/11 05:48:05;;;;;;;1.07;1.00;;;;;;;;;;5024122;28;20207;-58
2023/01/11 05:50:32;;;;;;;0.97;0.97;;;;;;;;;;5028493;28;20204;-57
2023/01/11 05:52:59;;;;;;;0.87;0.87;;;;;;;;;;5029707;28;20237;-57
2023/01/11 05:55:26;;;;;;;1.53;0.97;;;;;;;;;;5025483;28;20224;-58
2023/01/11 05:57:54;;;;;;;2.00;0.90;;;;;;;;;;5027777;28;20208;-58
2023/01/11 06:00:23;;;;;;;1.83;1.07;;;;;;;;;;5026585;28;20212;-57
2023/01/11 06:02:50;;;;;;;0.90;0.90;;;;;;;;;;5025892;28;20200;-57
2023/01/11 06:05:17;;;;;;;0.87;0.87;;;;;;;;;;5027839;28;20237;-58
2023/01/11 06:07:44;;;;;;;0.90;0.90;;;;;;;;;;5031826;28;20223;-57
2023/01/11 06:10:11;;;;;;;0.93;0.90;;;;;;;;;;5031962;28;20216;-57
2023/01/11 06:12:38;;;;;;;1.03;0.90;;;;;;;;;;5028941;28;20212;-57
2023/01/11 06:15:06;;;;;;;0.90;0.90;;;;;;;;;;5028704;28;20220;-57
2023/01/11 06:17:35;;;;;;;1.20;1.00;;;;;;;;;;5024536;28;20208;-57
2023/01/11 06:20:02;;;;;;;1.10;1.10;;;;;;;;;;5025826;28;20207;-57
2023/01/11 06:22:29;;;;;;;0.90;0.90;;;;;;;;;;5030735;28;20254;-58
2023/01/11 06:24:56;;;;;;;1.30;0.87;;;;;;;;;;5030223;28;20196;-57
2023/01/11 06:27:23;;;;;;;0.80;0.80;;;;;;;;;;5031244;28;20243;-59
2023/01/11 06:29:50;;;;;;;1.40;0.90;;;;;;;;;;5025145;28;20217;-58
2023/01/11 06:32:17;;;;;;;0.90;0.90;;;;;;;;;;5030008;28;20223;-58
2023/01/11 06:34:46;;;;;;;0.83;0.83;;;;;;;;;;5026530;28;20235;-57
2023/01/11 06:37:13;;;;;;;1.20;1.10;;;;;;;;;;5025780;28;20200;-58
2023/01/11 06:39:40;;;;;;;0.80;0.80;;;;;;;;;;5021924;28;20201;-59
2023/01/11 06:42:07;;;;;;;0.83;0.80;;;;;;;;;;5031354;28;20208;-57
2023/01/11 06:44:34;;;;;;;0.70;0.70;;;;;;;;;;5031869;28;20200;-57
2023/01/11 06:47:01;;;;;;;0.90;0.90;;;;;;;;;;5031877;28;20204;-58
2023/01/11 06:49:29;;;;;;;1.27;0.70;;;;;;;;;;5031758;28;20204;-57
2023/01/11 06:51:57;;;;;;;0.93;0.87;;;;;;;;;;5030439;28;20204;-57
2023/01/11 06:54:24;;;;;;;2.97;0.90;;;;;;;;;;5031844;28;20236;-58
2023/01/11 06:56:51;;;;;;;1.03;0.90;;;;;;;;;;5031153;28;20204;-58
2023/01/11 06:59:18;;;;;;;0.67;0.67;;;;;;;;;;5031390;28;20200;-58
2023/01/11 07:01:46;;;;;;;1.20;1.10;;;;;;;;;;5027852;28;20212;-57
2023/01/11 07:04:13;;;;;;;2.20;1.10;;;;;;;;;;5031563;28;20204;-57
2023/01/11 07:06:40;;;;;;;0.90;0.90;;;;;;;;;;5032326;28;20219;-58
2023/01/11 07:09:08;;;;;;;1.40;1.00;;;;;;;;;;5028597;28;20197;-59
2023/01/11 07:11:37;;;;;;;2.90;1.00;;;;;;;;;;5031463;28;20212;-58
2023/01/11 07:14:05;;;;;;;1.27;1.17;;;;;;;;;;5029805;28;20212;-59
2023/01/11 07:16:32;;;;;;;0.80;0.63;;;;;;;;;;5031039;28;20203;-57
2023/01/11 07:18:59;;;;;;;0.70;0.70;;;;;;;;;;5031783;28;20208;-57
2023/01/11 07:21:26;;;;;;;0.70;0.50;;;;;;;;;;5031024;28;20208;-57
2023/01/11 07:23:53;;;;;;;0.70;0.70;;;;;;;;;;5031448;28;20208;-58
2023/01/11 07:26:22;;;;;;;0.83;0.70;;;;;;;;;;5031810;28;20259;-56
2023/01/11 07:28:49;;;;;;;0.70;0.60;;;;;;;;;;5031067;28;20208;-58
2023/01/11 07:31:16;;;;;;;1.27;0.80;;;;;;;;;;5029460;28;20206;-58
2023/01/11 07:33:43;;;;;;;0.60;0.60;;;;;;;;;;5031793;28;20204;-57
2023/01/11 07:36:10;;;;;;;0.57;0.57;;;;;;;;;;5031018;28;20235;-56
2023/01/11 07:38:37;;;;;;;0.70;0.70;;;;;;;;;;5031634;28;20208;-57
2023/01/11 07:43:10;;;;;;;0.70;0.70;;;;;;;;;;5031265;28;20210;-56
2023/01/11 07:43:52;;;;;;;0.87;0.80;;;;;;;;;;5031531;28;20212;-55
2023/01/11 07:46:19;;;;;;;0.93;0.63;;;;;;;;;;5031457;28;20425;-57
2023/01/11 07:48:46;;;;;;;0.67;0.67;;;;;;;;;;5034136;28;20208;-56
2023/01/11 07:51:15;;;;;;;0.50;0.50;;;;;;;;;;5032900;28;20330;-57
2023/01/11 07:53:42;;;;;;;0.60;0.60;;;;;;;;;;5034334;28;20206;-57
2023/01/11 07:56:09;;;;;;;1.80;0.90;;;;;;;;;;5034527;28;20227;-58
2023/01/11 07:58:36;;;;;;;1.30;0.70;;;;;;;;;;5035525;28;20208;-57
2023/01/11 08:01:05;;;;;;;2.70;0.80;;;;;;;;;;5035250;28;20226;-58
2023/01/11 08:03:32;;;;;;;1.17;0.90;;;;;;;;;;5034182;28;20208;-59
2023/01/11 08:05:59;;;;;;;0.60;0.60;;;;;;;;;;5032948;28;20204;-57
2023/01/11 08:08:26;;;;;;;0.70;0.70;;;;;;;;;;5035494;28;20211;-59
2023/01/11 08:16:20;;;;;;;0.77;0.70;;;;;;;;;;5032070;28;20234;-58
2023/01/11 08:18:48;;;;;;;0.80;0.80;;;;;;;;;;5035178;28;20219;-57
2023/01/11 08:21:16;;;;;;;2.03;0.90;;;;;;;;;;5027686;28;20239;-59
2023/01/11 08:23:43;;;;;;;0.90;0.90;;;;;;;;;;5033529;28;20215;-58
2023/01/11 08:26:15;;;;;;;0.67;0.67;;;;;;;;;;5034371;28;20231;-58
2023/01/11 08:28:42;;;;;;;0.60;0.60;;;;;;;;;;5034974;28;20215;-57
2023/01/11 08:31:10;;;;;;;0.53;0.53;;;;;;;;;;5034488;28;20228;-58
2023/01/11 08:33:38;;;;;;;1.17;0.70;;;;;;;;;;5033978;28;20301;-58
2023/01/11 08:36:12;;;;;;;0.87;0.87;;;;;;;;;;5034168;28;20223;-58
2023/01/11 08:38:39;;;;;;;0.90;0.90;;;;;;;;;;5033952;28;20203;-57
2023/01/11 08:41:09;;;;;;;0.70;0.60;;;;;;;;;;5034000;28;20283;-58
2023/01/11 08:43:36;;;;;;;0.60;0.50;;;;;;;;;;5034780;28;20208;-57
2023/01/11 08:46:03;;;;;;;1.50;0.50;;;;;;;;;;5033464;28;20204;-57
2023/01/11 08:48:30;;;;;;;0.67;0.40;;;;;;;;;;5034154;28;20208;-58
2023/01/11 08:50:59;;;;;;;0.40;0.40;;;;;;;;;;5035125;28;20204;-58
2023/01/11 08:53:26;;;;;;;0.60;0.60;;;;;;;;;;5033814;28;20208;-59
2023/01/11 08:55:53;;;;;;;0.30;0.30;;;;;;;;;;5033837;28;20223;-57
2023/01/11 08:58:21;;;;;;;0.57;0.30;;;;;;;;;;5033555;28;20211;-58
2023/01/11 09:00:48;;;;;;;0.30;0.30;;;;;;;;;;5031164;28;20235;-58
2023/01/11 09:03:17;;;;;;;0.30;0.30;;;;;;;;;;5033354;28;20208;-57
2023/01/11 09:05:44;;;;;;;0.10;0.10;;;;;;;;;;5029181;28;20199;-58
2023/01/11 09:08:12;;;;;;;0.60;0.60;;;;;;;;;;5033956;28;20206;-58
2023/01/11 09:10:40;;;;;;;1.60;0.70;;;;;;;;;;5034727;28;20211;-58
2023/01/11 09:13:07;;;;;;;0.60;0.60;;;;;;;;;;5036078;28;20208;-58
2023/01/11 09:15:34;;;;;;;0.50;0.50;;;;;;;;;;5032082;28;20231;-58
2023/01/11 09:18:01;;;;;;;0.53;0.50;;;;;;;;;;5033616;28;20208;-58
2023/01/11 09:20:29;;;;;;;0.47;0.47;;;;;;;;;;5033901;28;20204;-58
2023/01/11 09:22:56;;;;;;;0.30;0.30;;;;;;;;;;5033470;28;20200;-59
2023/01/11 09:25:24;;;;;;;0.40;0.40;;;;;;;;;;5032531;28;20196;-58
2023/01/11 09:27:52;;;;;;;0.40;0.40;;;;;;;;;;5033273;28;20235;-58
2023/01/11 09:30:20;;;;;;;0.43;0.43;;;;;;;;;;5031737;28;20211;-58
2023/01/11 09:32:50;;;;;;;0.70;0.70;;;;;;;;;;5034900;28;20208;-59
2023/01/11 09:35:18;;;;;;;0.90;0.60;;;;;;;;;;5031498;28;20224;-58
2023/01/11 09:37:48;;;;;;;1.10;0.60;;;;;;;;;;5033113;28;20214;-58
2023/01/11 09:40:18;;;;;;;1.20;0.77;;;;;;;;;;5032740;28;20200;-58
2023/01/11 09:42:51;;;;;;;1.17;0.73;;;;;;;;;;5033346;28;20202;-59
2023/01/11 09:45:20;;;;;;;0.30;0.30;;;;;;;;;;5029417;28;20236;-59
2023/01/11 09:47:49;;;;;;;0.73;0.57;;;;;;;;;;5030429;28;20219;-59
2023/01/11 09:50:20;;;;;;;0.40;0.40;;;;;;;;;;5033025;28;20259;-57
2023/01/11 09:52:51;;;;;;;0.87;0.40;;;;;;;;;;5033563;28;20212;-58
2023/01/11 09:55:23;;;;;;;0.63;0.60;;;;;;;;;;5026759;28;20252;-58
2023/01/11 09:57:58;;;;;;;1.27;1.17;;;;;;;;;;5029448;28;20258;-58
2023/01/11 10:00:28;;;;;;;1.40;1.30;;;;;;;;;;5026508;28;20207;-57
2023/01/11 10:03:03;;;;;;;2.07;1.83;;;;;;;;;;5029535;28;20204;-59
2023/01/11 10:05:38;;;;;;;1.33;1.20;;;;;;;;;;5029410;28;20199;-58
2023/01/11 10:08:16;;;;;;;0.63;0.63;;;;;;;;;;5023820;28;20205;-58
2023/01/11 10:10:50;;;;;;;0.70;0.70;;;;;;;;;;5029003;28;20269;-58
2023/01/11 10:13:29;;;;;;;0.80;0.80;;;;;;;;;;5021566;28;20204;-57
2023/01/11 10:16:02;;;;;;;0.80;0.80;;;;;;;;;;5021116;28;20226;-58
2023/01/11 10:18:44;;;;;;;2.60;1.10;;;;;;;;;;5031132;28;20240;-56
2023/01/11 10:21:13;;;;;;;1.10;0.73;;;;;;;;;;5018427;28;20207;-56
2023/01/11 10:23:47;;;;;;;1.33;1.03;;;;;;;;;;5028644;28;20200;-57
2023/01/11 10:26:23;;;;;;;2.60;1.13;;;;;;;;;;5026434;28;20325;-58
2023/01/11 10:29:08;;;;;;;6.67;4.00;;;;;;;;;;5027318;28;20211;-58
2023/01/11 10:31:48;;;;;;;2.77;2.57;;;;;;;;;;5025322;28;20272;-58
2023/01/11 10:34:37;;;;;;;3.60;3.30;;;;;;;;;;5026780;28;20211;-57
2023/01/11 10:37:22;;;;;;;1.87;1.77;;;;;;;;;;5025687;28;20208;-57
2023/01/11 10:40:13;;;;;;;1.90;1.80;;;;;;;;;;5025968;28;20200;-58
2023/01/11 10:42:44;;;;;;;1.60;1.13;;;;;;;;;;5023991;28;20202;-57
2023/01/11 10:45:17;;;;;;;1.37;0.80;;;;;;;;;;5027729;28;20214;-58
2023/01/11 10:47:51;;;;;;;1.27;0.70;;;;;;;;;;5025089;28;20201;-58
2023/01/11 10:50:21;;;;;;;1.57;0.70;;;;;;;;;;5024359;28;20200;-57
2023/01/11 10:52:53;;;;;;;2.90;0.90;;;;;;;;;;5025887;28;20202;-59
2023/01/11 10:55:25;;;;;;;1.40;0.90;;;;;;;;;;5023194;28;20208;-57
2023/01/11 10:57:59;;;;;;;1.63;1.30;;;;;;;;;;5027720;28;20203;-58
2023/01/11 11:00:34;;;;;;;2.13;1.23;;;;;;;;;;5022202;28;20203;-57
2023/01/11 11:03:15;;;;;;;1.23;0.67;;;;;;;;;;5027396;28;20207;-57
2023/01/11 11:05:47;;;;;;;2.17;0.70;;;;;;;;;;5024936;28;20219;-58
2023/01/11 11:08:18;;;;;;;2.57;1.17;;;;;;;;;;5026336;28;20200;-58
2023/01/11 11:10:49;;;;;;;4.40;1.30;;;;;;;;;;5026060;28;20208;-57
2023/01/11 11:13:22;;;;;;;3.77;1.03;;;;;;;;;;5028447;28;20200;-58
2023/01/11 11:15:53;;;;;;;2.67;1.13;;;;;;;;;;5022396;28;20274;-55
2023/01/11 11:18:20;;;;;;;4.97;1.43;;;;;;;;;;5023678;28;20200;-58
2023/01/11 11:20:47;;;;;;;3.47;1.23;;;;;;;;;;5028166;28;20197;-59
2023/01/11 11:23:16;;;;;;;4.17;1.40;;;;;;;;;;5024484;28;20208;-59
2023/01/11 11:25:46;;;;;;;3.70;1.30;;;;;;;;;;5029940;28;20204;-58
2023/01/11 11:28:25;;;;;;;3.93;1.27;;;;;;;;;;5009470;28;20193;-57
2023/01/11 11:30:55;;;;;;;5.10;1.57;;;;;;;;;;5007099;28;20200;-59
2023/01/11 11:33:23;;;;;;;2.93;1.00;;;;;;;;;;5003899;28;20286;-59
2023/01/11 11:35:56;;;;;;;6.33;1.67;;;;;;;;;;5003546;28;20283;-59
2023/01/11 11:38:24;;;;;;;5.77;1.80;;;;;;;;;;5005260;28;20220;-57
2023/01/11 11:40:58;;;;;;;6.37;1.50;;;;;;;;;;5002227;28;20210;-58
2023/01/11 11:43:25;;;;;;;4.17;1.60;;;;;;;;;;5008911;28;20200;-59
2023/01/11 11:45:55;;;;;;;4.10;1.53;;;;;;;;;;5005142;28;20248;-58
2023/01/11 11:48:23;;;;;;;7.43;1.93;;;;;;;;;;5005464;28;20239;-58
2023/01/11 11:50:51;;;;;;;5.77;1.70;;;;;;;;;;5003267;28;20204;-58
2023/01/11 11:53:25;;;;;;;5.00;1.73;;;;;;;;;;5004859;28;20296;-58
2023/01/11 11:55:53;;;;;;;6.00;1.90;;;;;;;;;;5000863;28;20305;-59
2023/01/11 11:58:22;;;;;;;6.93;1.70;;;;;;;;;;5004887;28;20193;-59
2023/01/11 12:00:50;;;;;;;6.03;1.93;;;;;;;;;;4997730;28;20227;-58
2023/01/11 12:03:20;;;;;;;7.57;1.87;;;;;;;;;;4998839;28;20209;-58
2023/01/11 12:05:55;;;;;;;6.03;1.60;;;;;;;;;;5003120;28;20204;-57
2023/01/11 12:08:24;;;;;;;9.03;2.40;;;;;;;;;;5006138;28;20200;-58
2023/01/11 12:10:54;;;;;;;6.07;1.90;;;;;;;;;;5003823;28;20280;-58
2023/01/11 12:13:27;;;;;;;6.13;1.73;;;;;;;;;;5002610;28;20204;-59
2023/01/11 12:15:56;;;;;;;7.40;2.27;;;;;;;;;;5006748;28;20230;-57
2023/01/11 12:18:26;;;;;;;8.30;2.50;;;;;;;;;;5007724;28;20208;-58
2023/01/11 12:20:53;;;;;;;6.30;2.33;;;;;;;;;;5004740;28;20292;-59
2023/01/11 12:23:22;;;;;;;5.07;1.80;;;;;;;;;;5009608;28;20203;-58
2023/01/11 12:26:11;;;;;;;7.13;2.20;;;;;;;;;;5005469;28;20233;-59
2023/01/11 12:28:56;;;;;;;6.30;1.93;;;;;;;;;;5017000;28;20224;-59
2023/01/11 12:31:28;;;;;;;9.80;2.30;;;;;;;;;;5026041;28;20295;-58
2023/01/11 12:33:59;;;;;;;6.67;2.20;;;;;;;;;;5027494;28;20196;-57
2023/01/11 12:36:31;;;;;;;7.00;2.40;;;;;;;;;;5029426;28;20218;-58
2023/01/11 12:39:04;;;;;;;9.30;3.03;;;;;;;;;;5031448;28;20212;-58
2023/01/11 12:41:46;;;;;;;8.73;3.10;;;;;;;;;;5029058;28;20208;-57
2023/01/11 12:44:15;;;;;;;6.63;2.03;;;;;;;;;;5027303;28;20235;-59
2023/01/11 12:46:49;;;;;;;6.40;2.40;;;;;;;;;;5029877;28;20202;-58
2023/01/11 12:49:23;;;;;;;7.13;2.30;;;;;;;;;;5025931;28;20764;-56
2023/01/11 12:52:00;;;;;;;10.47;2.20;;;;;;;;;;5026561;28;20211;-57
2023/01/11 12:54:42;;;;;;;7.07;2.10;;;;;;;;;;5031857;28;20215;-58
2023/01/11 12:57:14;;;;;;;8.50;2.50;;;;;;;;;;5028954;28;20239;-58
2023/01/11 12:59:55;;;;;;;8.57;1.83;;;;;;;;;;5027846;28;20206;-57
2023/01/11 13:02:32;;;;;;;9.03;2.73;;;;;;;;;;5026592;28;20215;-60
2023/01/11 13:05:04;;;;;;;9.63;2.10;;;;;;;;;;5026308;28;20196;-58
2023/01/11 13:07:35;;;;;;;8.03;2.27;;;;;;;;;;5025839;28;20200;-58
2023/01/11 13:10:10;;;;;;;11.30;2.27;;;;;;;;;;5024643;28;20212;-58
2023/01/11 13:12:41;;;;;;;8.13;2.00;;;;;;;;;;5029935;28;20200;-57
2023/01/11 13:15:17;;;;;;;7.20;2.00;;;;;;;;;;5026632;28;20207;-57
2023/01/11 13:17:47;;;;;;;7.97;2.20;;;;;;;;;;5027346;28;20220;-58
2023/01/11 13:20:25;;;;;;;8.83;2.00;;;;;;;;;;5026922;28;20208;-57
2023/01/11 13:22:54;;;;;;;9.53;2.00;;;;;;;;;;5026983;28;20196;-58
2023/01/11 13:25:23;;;;;;;7.57;2.00;;;;;;;;;;5025819;28;20293;-59
2023/01/11 13:27:51;;;;;;;6.03;1.97;;;;;;;;;;5028305;28;20227;-58
2023/01/11 13:30:23;;;;;;;9.70;2.00;;;;;;;;;;5028233;28;20208;-56
2023/01/11 13:32:53;;;;;;;8.80;2.23;;;;;;;;;;5028416;28;20484;-59
2023/01/11 13:35:25;;;;;;;8.67;2.07;;;;;;;;;;5028022;28;20200;-56
2023/01/11 13:37:56;;;;;;;4.73;1.73;;;;;;;;;;5021546;28;20228;-57
2023/01/11 13:40:24;;;;;;;7.67;2.30;;;;;;;;;;5027830;28;20204;-58
2023/01/11 13:42:53;;;;;;;5.70;1.97;;;;;;;;;;5024299;28;20207;-58
2023/01/11 13:45:23;;;;;;;12.10;2.77;;;;;;;;;;5027587;28;20283;-58
2023/01/11 13:47:51;;;;;;;13.53;2.37;;;;;;;;;;5028332;28;20196;-58
2023/01/11 13:50:21;;;;;;;12.37;2.70;;;;;;;;;;5022109;28;20201;-59
2023/01/11 13:52:54;;;;;;;10.47;2.93;;;;;;;;;;5029571;28;20204;-57
2023/01/11 13:55:24;;;;;;;10.23;2.70;;;;;;;;;;5029449;28;20211;-58
2023/01/11 13:57:52;;;;;;;11.73;3.60;;;;;;;;;;5023602;28;20225;-55
2023/01/11 14:00:22;;;;;;;9.80;2.80;;;;;;;;;;5028128;28;20212;-58
2023/01/11 14:02:52;;;;;;;11.13;2.83;;;;;;;;;;5026438;28;20211;-56
2023/01/11 14:05:20;;;;;;;10.83;3.43;;;;;;;;;;5021876;28;20222;-57
2023/01/11 14:07:59;;;;;;;8.77;2.90;;;;;;;;;;5025155;28;20219;-58
2023/01/11 14:10:31;;;;;;;8.07;2.37;;;;;;;;;;5024561;28;20212;-58
2023/01/11 14:13:05;;;;;;;9.97;2.30;;;;;;;;;;5025089;28;20208;-57
2023/01/11 14:15:36;;;;;;;10.30;1.93;;;;;;;;;;5026732;28;20207;-56
2023/01/11 14:18:21;;;;;;;8.90;2.20;;;;;;;;;;5024517;28;20223;-58
2023/01/11 14:20:52;;;;;;;7.37;2.27;;;;;;;;;;5027262;28;20208;-56
2023/01/11 14:23:22;;;;;;;9.67;2.67;;;;;;;;;;5028340;28;20208;-57
2023/01/11 14:25:57;;;;;;;9.50;2.63;;;;;;;;;;5030115;28;20215;-57
2023/01/11 14:28:30;;;;;;;12.60;2.80;;;;;;;;;;5026506;28;20243;-59
2023/01/11 14:31:06;;;;;;;13.53;2.77;;;;;;;;;;5027640;28;20213;-56
2023/01/11 14:33:42;;;;;;;10.27;2.77;;;;;;;;;;5030894;28;20216;-58
2023/01/11 14:36:16;;;;;;;7.97;2.33;;;;;;;;;;5027654;28;20225;-59
2023/01/11 14:38:58;;;;;;;12.70;2.77;;;;;;;;;;5025934;28;20199;-59
2023/01/11 14:41:43;;;;;;;9.53;2.57;;;;;;;;;;5022228;28;20216;-59
2023/01/11 14:44:22;;;;;;;9.50;2.77;;;;;;;;;;5012416;28;20204;-58
2023/01/11 14:46:56;;;;;;;10.00;2.90;;;;;;;;;;5022587;28;20200;-59
2023/01/11 14:49:32;;;;;;;9.77;2.70;;;;;;;;;;5023577;28;20200;-58
2023/01/11 14:52:02;;;;;;;10.27;2.80;;;;;;;;;;5022519;28;20210;-57
2023/01/11 14:54:31;;;;;;;10.03;2.77;;;;;;;;;;5027950;28;20250;-57
2023/01/11 14:56:58;;;;;;;7.53;2.13;;;;;;;;;;5025319;28;20231;-59
2023/01/11 14:59:34;;;;;;;12.63;2.60;;;;;;;;;;5026724;28;20204;-58
2023/01/11 15:02:22;;;;;;;11.10;2.80;;;;;;;;;;5025250;28;20206;-58
2023/01/11 15:05:04;;;;;;;15.97;3.33;;;;;;;;;;5017339;28;20211;-56
2023/01/11 15:07:35;;;;;;;8.20;2.50;;;;;;;;;;5027785;28;20200;-58
2023/01/11 15:10:03;;;;;;;7.37;2.17;;;;;;;;;;5027127;28;20238;-58
2023/01/11 15:12:33;;;;;;;6.50;2.07;;;;;;;;;;5030027;28;20208;-56
2023/01/11 15:15:05;;;;;;;7.00;1.73;;;;;;;;;;5029605;28;20214;-58
2023/01/11 15:20:18;;;;;;;6.00;1.60;;;;;;;;;;5024442;28;20203;-58
2023/01/11 15:22:45;;;;;;;5.13;1.70;;;;;;;;;;5030820;28;20208;-58